Time;durP1;ratioP1;P1;durP2;ratioP2;P2;SDS_P1;SDS_P2;PMS_P1;PMS_P2;Temp;Humidity;BMP_temperature;BMP_pressure;BME280_temperature;BME280_humidity;BME280_pressure;Samples;Min_cycle;Max_cycle;Signal;HPM_P1;HPM_P2
2023/12/30 00:00:57;;;;;;;13.20;2.87;;;9.70;99.90;;;;;;5095518;28;20199;-73
2023/12/30 00:03:23;;;;;;;23.43;3.70;;;9.70;99.90;;;;;;5095780;28;20242;-72
2023/12/30 00:05:48;;;;;;;15.97;4.73;;;9.70;99.90;;;;;;5095590;28;20694;-73
2023/12/30 00:08:14;;;;;;;10.03;2.97;;;9.60;99.90;;;;;;5095551;28;20626;-72
2023/12/30 00:10:39;;;;;;;14.40;3.20;;;9.60;99.90;;;;;;5095584;28;20206;-73
2023/12/30 00:13:05;;;;;;;15.53;3.50;;;9.50;99.90;;;;;;5095617;28;20179;-73
2023/12/30 00:15:30;;;;;;;12.13;3.60;;;9.50;99.90;;;;;;5095367;28;20661;-72
2023/12/30 00:17:56;;;;;;;12.93;2.97;;;9.50;99.90;;;;;;5095558;28;20594;-73
2023/12/30 00:20:22;;;;;;;19.30;3.70;;;9.50;99.90;;;;;;5077363;28;20176;-73
2023/12/30 00:22:48;;;;;;;12.73;2.90;;;9.50;99.90;;;;;;5095311;28;20210;-73
2023/12/30 00:25:13;;;;;;;11.40;3.00;;;9.50;99.90;;;;;;5077262;28;20174;-73
2023/12/30 00:27:39;;;;;;;12.17;2.60;;;9.50;99.90;;;;;;5095147;28;20176;-73
2023/12/30 00:30:05;;;;;;;12.20;3.27;;;9.50;99.90;;;;;;5076897;28;20606;-73
2023/12/30 00:32:32;;;;;;;19.43;3.40;;;9.50;99.90;;;;;;5095198;28;20175;-73
2023/12/30 00:34:58;;;;;;;13.87;3.73;;;9.40;99.90;;;;;;5095284;28;20160;-73
2023/12/30 00:37:24;;;;;;;15.40;2.93;;;9.40;99.90;;;;;;5095062;28;20639;-72
2023/12/30 00:39:49;;;;;;;15.73;3.00;;;9.30;99.90;;;;;;5095068;28;20168;-73
2023/12/30 00:42:15;;;;;;;13.37;2.97;;;9.20;99.90;;;;;;5095072;28;20207;-73
2023/12/30 00:44:41;;;;;;;14.77;3.10;;;9.20;99.90;;;;;;5094727;28;20626;-72
2023/12/30 00:47:07;;;;;;;13.63;3.17;;;9.30;99.90;;;;;;5095122;28;20187;-72
2023/12/30 00:49:32;;;;;;;17.67;5.70;;;9.30;99.90;;;;;;5094978;28;20624;-72
2023/12/30 00:51:58;;;;;;;23.67;3.60;;;9.20;99.90;;;;;;5094915;28;20255;-72
2023/12/30 00:54:23;;;;;;;14.83;3.63;;;9.20;99.90;;;;;;5094871;28;20163;-72
2023/12/30 00:56:49;;;;;;;16.37;3.87;;;9.20;99.90;;;;;;5095090;28;20195;-73
2023/12/30 00:59:14;;;;;;;12.50;3.33;;;9.20;99.90;;;;;;5094500;28;20183;-73
2023/12/30 01:01:40;;;;;;;14.93;3.10;;;9.30;99.90;;;;;;5076599;28;20204;-72
2023/12/30 01:04:06;;;;;;;12.80;3.03;;;9.30;99.90;;;;;;5094758;28;20175;-73
2023/12/30 01:06:31;;;;;;;15.07;3.57;;;9.20;99.90;;;;;;5094389;28;20206;-73
2023/12/30 01:08:58;;;;;;;14.90;2.90;;;9.30;99.90;;;;;;5094502;28;20640;-72
2023/12/30 01:11:23;;;;;;;10.43;2.80;;;9.30;99.90;;;;;;5094409;28;20188;-72
2023/12/30 01:13:49;;;;;;;16.70;3.27;;;9.40;99.90;;;;;;5076009;28;20191;-72
2023/12/30 01:16:16;;;;;;;12.60;3.10;;;9.40;99.90;;;;;;5094420;28;20247;-72
2023/12/30 01:18:42;;;;;;;13.67;3.27;;;9.40;99.90;;;;;;5094477;28;20180;-73
2023/12/30 01:21:08;;;;;;;12.40;3.10;;;9.40;99.90;;;;;;5094287;28;20225;-72
2023/12/30 01:23:33;;;;;;;13.60;2.93;;;9.40;99.90;;;;;;5076145;28;20216;-72
2023/12/30 01:25:59;;;;;;;16.23;3.20;;;9.30;99.90;;;;;;5094158;28;20168;-72
2023/12/30 01:28:24;;;;;;;12.83;3.13;;;9.30;99.90;;;;;;5093894;28;20224;-73
2023/12/30 01:30:51;;;;;;;17.97;3.33;;;9.30;99.90;;;;;;5093587;28;20618;-72
2023/12/30 01:33:16;;;;;;;12.50;3.50;;;9.40;99.90;;;;;;5094235;28;20172;-73
2023/12/30 01:35:42;;;;;;;16.20;3.53;;;9.30;99.90;;;;;;5093925;28;20214;-73
2023/12/30 01:38:07;;;;;;;13.77;3.63;;;9.30;99.90;;;;;;5094063;28;20168;-73
2023/12/30 01:40:33;;;;;;;9.73;3.63;;;9.30;99.90;;;;;;5093893;28;20195;-72
2023/12/30 01:43:02;;;;;;;19.03;4.33;;;9.40;99.90;;;;;;5093601;28;20215;-72
2023/12/30 01:45:28;;;;;;;14.43;2.97;;;9.40;99.90;;;;;;5076085;28;20538;-74
2023/12/30 01:47:54;;;;;;;15.77;3.00;;;9.40;99.90;;;;;;5093956;28;20180;-72
2023/12/30 01:50:21;;;;;;;11.27;3.43;;;9.30;99.90;;;;;;5093659;28;20214;-72
2023/12/30 01:52:47;;;;;;;20.53;3.70;;;9.30;99.90;;;;;;5093854;28;20529;-73
2023/12/30 01:55:14;;;;;;;18.00;3.53;;;9.30;99.90;;;;;;5093919;28;20168;-73
2023/12/30 01:57:40;;;;;;;15.23;3.20;;;9.30;99.90;;;;;;5093468;28;20179;-72
2023/12/30 02:00:06;;;;;;;15.13;3.73;;;9.30;99.90;;;;;;5093699;28;20163;-73
2023/12/30 02:02:31;;;;;;;19.60;3.60;;;9.30;99.90;;;;;;5093528;28;20208;-73
2023/12/30 02:04:57;;;;;;;16.70;3.77;;;9.30;99.90;;;;;;5093578;28;20176;-72
2023/12/30 02:07:24;;;;;;;16.37;3.77;;;9.30;99.90;;;;;;5093810;28;20172;-72
2023/12/30 02:09:49;;;;;;;19.60;3.70;;;9.30;99.90;;;;;;5093535;28;20192;-72
2023/12/30 02:12:15;;;;;;;18.17;3.60;;;9.40;99.90;;;;;;5093307;28;20653;-73
2023/12/30 02:14:40;;;;;;;17.40;3.60;;;9.40;99.90;;;;;;5093458;28;20203;-73
2023/12/30 02:17:06;;;;;;;12.07;3.40;;;9.40;99.90;;;;;;5093445;28;20172;-72
2023/12/30 02:19:33;;;;;;;16.23;3.80;;;9.30;99.90;;;;;;5093318;28;20171;-73
2023/12/30 02:21:59;;;;;;;20.17;4.20;;;9.30;99.90;;;;;;5093572;28;20192;-73
2023/12/30 02:24:24;;;;;;;15.73;3.50;;;9.30;99.90;;;;;;5093549;28;20225;-73
2023/12/30 02:26:50;;;;;;;17.53;3.70;;;9.30;99.90;;;;;;5093071;28;20167;-73
2023/12/30 02:29:15;;;;;;;17.30;3.77;;;9.30;99.90;;;;;;5057006;28;20224;-73
2023/12/30 02:31:47;;;;;;;12.60;3.37;;;9.30;99.90;;;;;;5053073;28;20165;-72
2023/12/30 02:34:15;;;;;;;15.37;3.30;;;9.20;99.90;;;;;;5053108;28;20161;-72
2023/12/30 02:36:40;;;;;;;14.40;3.60;;;9.20;99.90;;;;;;5053127;28;20169;-72
2023/12/30 02:39:06;;;;;;;15.30;3.40;;;9.20;99.90;;;;;;5053055;28;20170;-72
2023/12/30 02:41:31;;;;;;;17.80;4.03;;;9.20;99.90;;;;;;5054617;28;20253;-73
2023/12/30 02:44:00;;;;;;;15.33;3.30;;;9.10;99.90;;;;;;5057024;28;20181;-73
2023/12/30 02:46:26;;;;;;;19.63;3.63;;;9.20;99.90;;;;;;5057173;28;20158;-72
2023/12/30 02:48:52;;;;;;;12.93;3.10;;;9.20;99.90;;;;;;5057152;28;20203;-72
2023/12/30 02:51:18;;;;;;;11.80;3.30;;;9.20;99.90;;;;;;5057051;28;20250;-72
2023/12/30 02:53:44;;;;;;;13.43;3.53;;;9.30;99.90;;;;;;5056901;28;20629;-72
2023/12/30 02:56:26;;;;;;;14.27;3.13;;;9.30;99.90;;;;;;5056752;28;20177;-71
2023/12/30 02:58:56;;;;;;;13.80;3.50;;;9.30;99.90;;;;;;5056869;28;20180;-72
2023/12/30 03:01:27;;;;;;;12.47;2.97;;;9.40;99.90;;;;;;5056888;28;20165;-72
2023/12/30 03:03:53;;;;;;;11.27;2.83;;;9.40;99.90;;;;;;5056579;28;20177;-73
2023/12/30 03:06:21;;;;;;;16.73;3.20;;;9.40;99.90;;;;;;5056775;28;20181;-72
2023/12/30 03:08:47;;;;;;;16.37;3.23;;;9.40;99.90;;;;;;5056730;28;20258;-72
2023/12/30 03:11:12;;;;;;;11.80;3.07;;;9.30;99.90;;;;;;5056097;28;20197;-72
2023/12/30 03:13:38;;;;;;;16.63;3.23;;;9.40;99.90;;;;;;5056401;28;20180;-72
2023/12/30 03:16:04;;;;;;;17.13;3.67;;;9.40;99.90;;;;;;5055103;28;20268;-73
2023/12/30 03:18:30;;;;;;;14.87;3.13;;;9.40;99.90;;;;;;5056568;28;20170;-71
2023/12/30 03:20:56;;;;;;;9.93;3.10;;;9.40;99.90;;;;;;5056413;28;20251;-73
2023/12/30 03:23:21;;;;;;;12.67;2.90;;;9.40;99.90;;;;;;5055931;28;20251;-73
2023/12/30 03:25:47;;;;;;;14.13;3.30;;;9.30;99.90;;;;;;5056247;28;20165;-73
2023/12/30 03:28:12;;;;;;;18.33;3.47;;;9.40;99.90;;;;;;5067658;28;20215;-73
2023/12/30 03:30:38;;;;;;;10.97;3.20;;;9.40;99.90;;;;;;5078360;28;20172;-73
2023/12/30 03:33:04;;;;;;;12.87;2.67;;;9.40;99.90;;;;;;5096445;28;20168;-73
2023/12/30 03:35:32;;;;;;;17.50;3.50;;;9.40;99.90;;;;;;5096359;28;20167;-72
2023/12/30 03:37:57;;;;;;;16.97;3.00;;;9.40;99.90;;;;;;5096219;28;20305;-72
2023/12/30 03:40:23;;;;;;;11.17;2.87;;;9.40;99.90;;;;;;5096164;28;20215;-73
2023/12/30 03:42:48;;;;;;;13.90;2.77;;;9.40;99.90;;;;;;5078179;28;20219;-72
2023/12/30 03:45:14;;;;;;;14.90;3.10;;;9.40;99.90;;;;;;5096161;28;20175;-72
2023/12/30 03:47:39;;;;;;;14.67;3.40;;;9.50;99.90;;;;;;5096256;28;20182;-72
2023/12/30 03:50:05;;;;;;;13.67;3.33;;;9.50;99.90;;;;;;5096227;28;20170;-72
2023/12/30 03:52:31;;;;;;;10.77;2.97;;;9.50;99.90;;;;;;5094986;28;20171;-73
2023/12/30 03:54:56;;;;;;;20.63;3.40;;;9.60;99.90;;;;;;5095881;28;20221;-72
2023/12/30 03:57:22;;;;;;;14.53;3.20;;;9.60;99.90;;;;;;5096095;28;20207;-72
2023/12/30 03:59:48;;;;;;;9.90;3.00;;;9.50;99.90;;;;;;5095817;28;20168;-71
2023/12/30 04:02:17;;;;;;;14.20;3.07;;;9.60;99.90;;;;;;5095781;28;20211;-72
2023/12/30 04:04:43;;;;;;;17.73;3.17;;;9.50;99.90;;;;;;5095817;28;20168;-72
2023/12/30 04:07:09;;;;;;;20.87;3.63;;;9.40;99.90;;;;;;5095623;28;20869;-73
2023/12/30 04:09:34;;;;;;;12.27;3.33;;;9.30;99.90;;;;;;5095621;28;20661;-72
2023/12/30 04:12:00;;;;;;;14.27;2.73;;;9.30;99.90;;;;;;5077409;28;20217;-72
2023/12/30 04:14:26;;;;;;;17.10;3.20;;;9.30;99.90;;;;;;5095649;28;20172;-72
2023/12/30 04:16:51;;;;;;;14.03;3.50;;;9.30;99.90;;;;;;5095558;28;20172;-73
2023/12/30 04:19:17;;;;;;;11.60;3.20;;;9.40;99.90;;;;;;5077272;28;20580;-72
2023/12/30 04:21:42;;;;;;;12.23;3.67;;;9.40;99.90;;;;;;5095030;28;20218;-71
2023/12/30 04:24:08;;;;;;;13.83;3.37;;;9.30;99.90;;;;;;5095509;28;20179;-73
2023/12/30 04:26:33;;;;;;;14.97;3.67;;;9.30;99.90;;;;;;5095410;28;20164;-72
2023/12/30 04:28:59;;;;;;;12.70;2.90;;;9.30;99.90;;;;;;5095094;28;20222;-73
2023/12/30 04:31:25;;;;;;;16.43;3.47;;;9.30;99.90;;;;;;5095156;28;20692;-72
2023/12/30 04:33:50;;;;;;;14.93;3.30;;;9.30;99.90;;;;;;5095256;28;20195;-73
2023/12/30 04:36:16;;;;;;;10.37;2.57;;;9.20;99.90;;;;;;5094784;28;20693;-72
2023/12/30 04:38:41;;;;;;;13.77;3.60;;;9.20;99.90;;;;;;5094837;28;20251;-72
2023/12/30 04:41:07;;;;;;;13.93;2.83;;;9.30;99.90;;;;;;5094707;28;20197;-73
2023/12/30 04:43:32;;;;;;;17.77;3.03;;;9.10;99.90;;;;;;5094948;28;20200;-73
2023/12/30 04:45:58;;;;;;;19.00;3.43;;;9.10;99.90;;;;;;5094639;28;20171;-72
2023/12/30 04:48:24;;;;;;;17.27;3.37;;;9.00;99.90;;;;;;5094873;28;20172;-72
2023/12/30 04:50:49;;;;;;;12.93;3.30;;;9.00;99.90;;;;;;5094139;28;20229;-72
2023/12/30 04:53:15;;;;;;;13.20;4.97;;;9.00;99.90;;;;;;5094647;28;20178;-72
2023/12/30 04:55:41;;;;;;;18.23;5.43;;;8.90;99.90;;;;;;5076165;28;20176;-72
2023/12/30 04:58:06;;;;;;;14.57;3.27;;;8.90;99.90;;;;;;5094373;28;20182;-72
2023/12/30 05:00:32;;;;;;;14.10;3.60;;;8.80;99.90;;;;;;5094635;28;20164;-73
2023/12/30 05:02:58;;;;;;;12.50;3.20;;;8.70;99.90;;;;;;5094503;28;20208;-73
2023/12/30 05:05:23;;;;;;;16.17;3.10;;;8.70;99.90;;;;;;5093026;28;20164;-72
2023/12/30 05:07:49;;;;;;;13.73;3.00;;;8.70;99.90;;;;;;5093986;28;20222;-72
2023/12/30 05:10:14;;;;;;;17.27;3.50;;;8.70;99.90;;;;;;5094217;28;20191;-72
2023/12/30 05:12:40;;;;;;;13.00;3.40;;;8.70;99.90;;;;;;5094449;28;20251;-72
2023/12/30 05:15:06;;;;;;;10.97;3.77;;;8.70;99.90;;;;;;5094166;28;20160;-72
2023/12/30 05:17:32;;;;;;;16.37;3.70;;;8.60;99.90;;;;;;5094412;28;20179;-72
2023/12/30 05:19:57;;;;;;;18.43;3.73;;;8.60;99.90;;;;;;5094238;28;20168;-72
2023/12/30 05:22:23;;;;;;;11.50;3.43;;;8.60;99.90;;;;;;5094181;28;20211;-73
2023/12/30 05:24:49;;;;;;;15.83;4.30;;;8.60;99.90;;;;;;5094087;28;20520;-72
2023/12/30 05:27:14;;;;;;;12.37;3.53;;;8.60;99.90;;;;;;5093781;28;20203;-73
2023/12/30 05:29:40;;;;;;;15.27;3.67;;;8.60;99.90;;;;;;5093747;28;20227;-73
2023/12/30 05:32:05;;;;;;;20.17;4.33;;;8.60;99.90;;;;;;5094056;28;20175;-73
2023/12/30 05:34:31;;;;;;;19.10;4.00;;;8.70;99.90;;;;;;5093674;28;20168;-73
2023/12/30 05:36:57;;;;;;;14.27;3.67;;;8.70;99.90;;;;;;5094073;28;20160;-72
2023/12/30 05:39:22;;;;;;;15.97;3.53;;;8.70;99.90;;;;;;5093353;28;20174;-72
2023/12/30 05:41:48;;;;;;;19.27;4.50;;;8.70;99.90;;;;;;5093799;28;20655;-72
2023/12/30 05:44:13;;;;;;;17.80;4.13;;;8.70;99.90;;;;;;5075720;28;20191;-72
2023/12/30 05:46:39;;;;;;;21.93;3.70;;;8.70;99.90;;;;;;5093856;28;20628;-72
2023/12/30 05:49:05;;;;;;;13.90;4.00;;;8.70;99.90;;;;;;5092986;28;20233;-72
2023/12/30 05:51:31;;;;;;;17.80;4.40;;;8.80;99.90;;;;;;5093399;28;20262;-72
2023/12/30 05:53:56;;;;;;;16.63;3.90;;;8.70;99.90;;;;;;5093323;28;20221;-72
2023/12/30 05:56:26;;;;;;;17.97;4.07;;;8.70;99.90;;;;;;5093593;28;20237;-72
2023/12/30 05:58:55;;;;;;;19.80;3.80;;;8.80;99.90;;;;;;5093414;28;20172;-72
2023/12/30 06:01:20;;;;;;;12.00;3.67;;;8.80;99.90;;;;;;5093464;28;20168;-71
2023/12/30 06:03:46;;;;;;;13.07;3.83;;;8.90;99.90;;;;;;5093282;28;20199;-72
2023/12/30 06:06:11;;;;;;;15.47;3.90;;;8.80;99.90;;;;;;5093101;28;20520;-73
2023/12/30 06:08:37;;;;;;;17.43;3.90;;;8.70;99.90;;;;;;5093128;28;20187;-72
2023/12/30 06:11:02;;;;;;;21.73;4.13;;;8.80;99.90;;;;;;5093486;28;20191;-72
2023/12/30 06:13:28;;;;;;;19.03;4.20;;;8.80;99.90;;;;;;5093352;28;20633;-72
2023/12/30 06:15:56;;;;;;;15.77;4.43;;;8.80;99.90;;;;;;5092925;28;20758;-73
2023/12/30 06:18:26;;;;;;;19.47;4.20;;;8.80;99.90;;;;;;5092780;28;20250;-72
2023/12/30 06:20:52;;;;;;;12.50;4.20;;;8.90;99.90;;;;;;5093406;28;20160;-72
2023/12/30 06:23:17;;;;;;;18.50;4.07;;;8.80;99.90;;;;;;5092965;28;20207;-72
2023/12/30 06:25:43;;;;;;;13.77;3.93;;;8.80;99.90;;;;;;5092996;28;20217;-72
2023/12/30 06:28:08;;;;;;;16.73;4.30;;;8.80;99.90;;;;;;5092754;28;20729;-71
2023/12/30 06:30:34;;;;;;;13.57;4.03;;;8.80;99.90;;;;;;5093105;28;20167;-73
2023/12/30 06:33:06;;;;;;;11.97;4.27;;;8.80;99.90;;;;;;5074722;28;20260;-72
2023/12/30 06:35:32;;;;;;;17.63;4.93;;;8.80;99.90;;;;;;5093091;28;20175;-72
2023/12/30 06:37:57;;;;;;;20.93;4.77;;;8.80;99.90;;;;;;5093192;28;20179;-72
2023/12/30 06:40:23;;;;;;;14.70;4.67;;;8.70;99.90;;;;;;5092666;28;20221;-73
2023/12/30 06:42:48;;;;;;;15.30;4.27;;;8.70;99.90;;;;;;5092975;28;20218;-72
2023/12/30 06:45:14;;;;;;;15.50;4.40;;;8.70;99.90;;;;;;5074899;28;20172;-72
2023/12/30 06:47:41;;;;;;;17.53;4.47;;;8.70;99.90;;;;;;5092503;28;20535;-71
2023/12/30 06:50:07;;;;;;;17.07;4.47;;;8.60;99.90;;;;;;5092490;28;20176;-71
2023/12/30 06:52:33;;;;;;;19.20;4.90;;;8.60;99.90;;;;;;5093317;28;20183;-71
2023/12/30 06:54:59;;;;;;;20.60;5.00;;;8.60;99.90;;;;;;5092828;28;20166;-72
2023/12/30 06:57:25;;;;;;;16.20;4.50;;;8.70;99.90;;;;;;5092614;28;20172;-72
2023/12/30 06:59:51;;;;;;;16.53;5.30;;;8.70;99.90;;;;;;5092605;28;20161;-71
2023/12/30 07:02:16;;;;;;;17.23;5.03;;;8.70;99.90;;;;;;5092750;28;20207;-72
2023/12/30 07:04:42;;;;;;;15.97;5.00;;;8.70;99.90;;;;;;5092611;28;20183;-72
2023/12/30 07:07:07;;;;;;;22.53;5.03;;;8.70;99.90;;;;;;5092182;28;20183;-72
2023/12/30 07:09:33;;;;;;;14.43;5.03;;;8.60;99.90;;;;;;5092331;28;20179;-72
2023/12/30 07:11:58;;;;;;;12.87;4.43;;;8.60;99.90;;;;;;5092980;28;20164;-72
2023/12/30 07:14:24;;;;;;;22.03;5.03;;;8.60;99.90;;;;;;5092183;28;20218;-72
2023/12/30 07:16:50;;;;;;;14.40;4.43;;;8.60;99.90;;;;;;5074119;28;20167;-71
2023/12/30 07:19:16;;;;;;;11.97;4.73;;;8.60;99.90;;;;;;5092461;28;20203;-72
2023/12/30 07:21:42;;;;;;;19.00;5.17;;;8.70;99.90;;;;;;5092529;28;20168;-73
2023/12/30 07:24:07;;;;;;;18.53;5.33;;;8.60;99.90;;;;;;5092625;28;20229;-72
2023/12/30 07:26:33;;;;;;;23.70;6.03;;;8.60;99.90;;;;;;5092520;28;20168;-72
2023/12/30 07:28:59;;;;;;;15.23;5.10;;;8.70;99.90;;;;;;5095129;28;20231;-72
2023/12/30 07:31:25;;;;;;;15.97;5.03;;;8.70;99.90;;;;;;5096104;28;20160;-73
2023/12/30 07:33:51;;;;;;;16.47;5.20;;;8.80;99.90;;;;;;5095915;28;20172;-73
2023/12/30 07:36:17;;;;;;;21.60;5.80;;;8.70;99.90;;;;;;5096192;28;20513;-72
2023/12/30 07:38:43;;;;;;;26.33;5.33;;;8.80;99.90;;;;;;5077754;28;20179;-72
2023/12/30 07:41:09;;;;;;;15.47;4.93;;;8.80;99.90;;;;;;5095751;28;20618;-73
2023/12/30 07:43:35;;;;;;;15.93;4.87;;;8.80;99.90;;;;;;5095972;28;20211;-72
2023/12/30 07:46:00;;;;;;;15.23;4.97;;;8.80;99.90;;;;;;5095441;28;20525;-72
2023/12/30 07:48:29;;;;;;;18.67;5.43;;;8.80;99.90;;;;;;5095648;28;20258;-73
2023/12/30 07:50:54;;;;;;;19.13;5.13;;;8.70;99.90;;;;;;5095614;28;20167;-73
2023/12/30 07:53:20;;;;;;;21.47;6.23;;;8.80;99.90;;;;;;5095904;28;20621;-73
2023/12/30 07:55:45;;;;;;;15.07;5.10;;;8.70;99.90;;;;;;5095308;28;20175;-74
2023/12/30 07:58:11;;;;;;;23.53;5.53;;;8.80;99.90;;;;;;5095967;28;20180;-73
2023/12/30 08:00:37;;;;;;;22.43;5.67;;;8.80;99.90;;;;;;5077077;28;20164;-73
2023/12/30 08:03:03;;;;;;;18.43;5.20;;;8.80;99.90;;;;;;5095221;28;20725;-73
2023/12/30 08:05:29;;;;;;;13.53;4.67;;;8.80;99.90;;;;;;5095060;28;20631;-73
2023/12/30 08:07:54;;;;;;;16.63;5.20;;;8.90;99.90;;;;;;5095231;28;20171;-72
2023/12/30 08:10:20;;;;;;;19.60;5.00;;;8.90;99.90;;;;;;5095547;28;20597;-72
2023/12/30 08:12:45;;;;;;;15.50;4.97;;;8.90;99.90;;;;;;5077061;28;20168;-72
2023/12/30 08:15:11;;;;;;;18.80;5.20;;;8.90;99.90;;;;;;5095144;28;20180;-73
2023/12/30 08:17:37;;;;;;;15.47;5.27;;;8.80;99.90;;;;;;5095306;28;20272;-73
2023/12/30 08:20:04;;;;;;;15.07;4.97;;;8.80;99.90;;;;;;5095244;28;20648;-72
2023/12/30 08:22:30;;;;;;;17.50;5.63;;;8.80;99.90;;;;;;5094952;28;20222;-74
2023/12/30 08:24:55;;;;;;;23.73;5.33;;;8.90;99.90;;;;;;5095294;28;20164;-73
2023/12/30 08:27:21;;;;;;;19.73;5.07;;;8.90;99.90;;;;;;5095074;28;20176;-73
2023/12/30 08:29:46;;;;;;;17.63;4.83;;;9.00;99.90;;;;;;5094574;28;20300;-74
2023/12/30 08:32:12;;;;;;;23.07;5.60;;;8.90;99.90;;;;;;5094995;28;20190;-73
2023/12/30 08:34:37;;;;;;;14.90;4.77;;;8.90;99.90;;;;;;5077008;28;20168;-73
2023/12/30 08:37:08;;;;;;;15.53;5.37;;;9.00;99.90;;;;;;5094640;28;20250;-73
2023/12/30 08:39:35;;;;;;;20.40;5.07;;;9.20;99.90;;;;;;5094548;28;20177;-73
2023/12/30 08:42:02;;;;;;;17.33;4.60;;;9.20;99.90;;;;;;5094927;28;20250;-73
2023/12/30 08:44:28;;;;;;;12.40;4.60;;;9.20;99.90;;;;;;5094301;28;20172;-73
2023/12/30 08:46:54;;;;;;;17.53;4.97;;;9.20;99.90;;;;;;5094409;28;20182;-73
2023/12/30 08:49:19;;;;;;;21.03;4.47;;;9.20;99.90;;;;;;5094290;28;20271;-73
2023/12/30 08:51:45;;;;;;;22.43;6.00;;;9.30;99.90;;;;;;5094781;28;20196;-73
2023/12/30 08:54:10;;;;;;;12.33;4.30;;;9.50;99.90;;;;;;5094408;28;20168;-74
2023/12/30 08:56:37;;;;;;;18.57;5.00;;;9.40;99.90;;;;;;5094576;28;20716;-73
2023/12/30 08:59:02;;;;;;;18.10;4.67;;;9.40;99.90;;;;;;5093598;28;20615;-74
2023/12/30 09:01:28;;;;;;;16.43;5.03;;;9.50;99.90;;;;;;5094013;28;20179;-75
2023/12/30 09:03:54;;;;;;;14.70;4.90;;;9.50;99.90;;;;;;5094412;28;20262;-74
2023/12/30 09:06:20;;;;;;;15.77;4.80;;;9.50;99.90;;;;;;5093871;28;20168;-75
2023/12/30 09:08:46;;;;;;;17.03;4.87;;;9.50;99.90;;;;;;5094077;28;20172;-74
2023/12/30 09:11:19;;;;;;;16.70;4.50;;;9.70;99.90;;;;;;5076114;28;20537;-73
2023/12/30 09:13:45;;;;;;;13.73;4.60;;;9.70;99.90;;;;;;5094138;28;20160;-74
2023/12/30 09:16:11;;;;;;;11.03;3.87;;;9.80;99.90;;;;;;5075453;28;20172;-74
2023/12/30 09:18:36;;;;;;;17.27;4.83;;;9.80;99.90;;;;;;5094013;28;20221;-75
2023/12/30 09:21:02;;;;;;;15.40;4.87;;;9.90;99.90;;;;;;5094269;28;20541;-74
2023/12/30 09:23:28;;;;;;;18.73;4.93;;;9.80;99.90;;;;;;5094010;28;20288;-74
2023/12/30 09:25:53;;;;;;;17.37;4.87;;;9.90;99.90;;;;;;5093668;28;20662;-73
2023/12/30 09:28:19;;;;;;;16.43;4.83;;;10.00;99.90;;;;;;5093302;28;20706;-74
2023/12/30 09:30:44;;;;;;;16.53;4.80;;;10.10;99.90;;;;;;5093487;28;20175;-74
2023/12/30 09:33:10;;;;;;;13.93;4.40;;;10.20;99.90;;;;;;5093776;28;20164;-74
2023/12/30 09:35:35;;;;;;;13.20;4.90;;;10.30;99.90;;;;;;5093996;28;20187;-73
2023/12/30 09:38:01;;;;;;;15.57;4.50;;;10.50;99.90;;;;;;5093728;28;20527;-73
2023/12/30 09:40:27;;;;;;;17.90;4.90;;;10.90;99.90;;;;;;5093265;28;20214;-73
2023/12/30 09:42:57;;;;;;;13.67;4.47;;;11.30;99.90;;;;;;5093499;28;20213;-74
2023/12/30 09:45:23;;;;;;;14.80;4.40;;;11.50;99.90;;;;;;5094030;28;20164;-73
2023/12/30 09:47:50;;;;;;;12.73;4.33;;;11.50;99.90;;;;;;5093203;28;20160;-73
2023/12/30 09:50:15;;;;;;;14.17;4.70;;;11.70;99.90;;;;;;5074753;28;20164;-73
2023/12/30 09:52:41;;;;;;;12.93;4.40;;;11.70;99.90;;;;;;5093183;28;20779;-73
2023/12/30 09:55:07;;;;;;;10.43;3.60;;;11.50;99.90;;;;;;5092571;28;20172;-73
2023/12/30 09:57:32;;;;;;;13.97;4.57;;;11.30;99.90;;;;;;5074966;28;20175;-76
2023/12/30 09:59:59;;;;;;;12.27;4.67;;;10.90;99.90;;;;;;5093223;28;20163;-73
2023/12/30 10:02:25;;;;;;;12.63;4.43;;;10.80;99.90;;;;;;5093143;28;20199;-74
2023/12/30 10:04:52;;;;;;;13.10;4.77;;;10.70;99.90;;;;;;5093374;28;20167;-74
2023/12/30 10:07:18;;;;;;;18.60;5.27;;;10.50;99.90;;;;;;5092688;28;20207;-73
2023/12/30 10:09:45;;;;;;;12.00;5.97;;;10.40;99.90;;;;;;5092821;28;20183;-73
2023/12/30 10:12:11;;;;;;;12.10;5.77;;;10.20;99.90;;;;;;5092926;28;20254;-75
2023/12/30 10:14:36;;;;;;;15.80;7.10;;;10.10;99.90;;;;;;5093175;28;20203;-74
2023/12/30 10:17:04;;;;;;;16.73;6.20;;;10.10;99.90;;;;;;5092820;28;20297;-74
2023/12/30 10:19:29;;;;;;;19.43;7.00;;;10.00;99.90;;;;;;5091213;28;20164;-74
2023/12/30 10:21:55;;;;;;;19.73;7.80;;;10.00;99.90;;;;;;5091516;28;20206;-73
2023/12/30 10:24:21;;;;;;;17.63;7.03;;;10.20;99.90;;;;;;5092544;28;20255;-73
2023/12/30 10:26:47;;;;;;;16.30;6.90;;;10.30;99.90;;;;;;5092878;28;20261;-73
2023/12/30 10:29:14;;;;;;;15.77;6.33;;;10.70;99.90;;;;;;5092616;28;20712;-73
2023/12/30 10:31:39;;;;;;;13.30;6.57;;;11.10;99.90;;;;;;5073724;28;20176;-73
2023/12/30 10:34:06;;;;;;;18.67;5.83;;;11.30;99.90;;;;;;5074093;28;20537;-73
2023/12/30 10:36:31;;;;;;;10.33;5.90;;;11.60;99.90;;;;;;5092763;28;20168;-74
2023/12/30 10:38:59;;;;;;;15.20;6.33;;;12.00;99.90;;;;;;5092504;28;20210;-72
2023/12/30 10:41:26;;;;;;;13.87;4.87;;;12.20;99.90;;;;;;5092132;28;20635;-73
2023/12/30 10:43:52;;;;;;;15.70;5.50;;;12.20;99.90;;;;;;5091969;28;20295;-73
2023/12/30 10:46:18;;;;;;;11.20;5.10;;;12.00;99.90;;;;;;5092835;28;20214;-73
2023/12/30 10:48:53;;;;;;;13.20;4.23;;;12.00;99.90;;;;;;5074528;28;20179;-75
2023/12/30 10:51:24;;;;;;;16.20;4.60;;;12.10;99.90;;;;;;5092643;28;20232;-73
2023/12/30 10:54:00;;;;;;;16.47;5.20;;;12.10;99.90;;;;;;5091974;28;20172;-74
2023/12/30 10:56:28;;;;;;;12.63;5.00;;;12.50;99.90;;;;;;5092744;28;20262;-74
2023/12/30 10:58:59;;;;;;;13.47;4.93;;;12.60;99.90;;;;;;5074276;28;20195;-72
2023/12/30 11:01:25;;;;;;;16.57;5.80;;;12.90;99.90;;;;;;5092496;28;20199;-73
2023/12/30 11:03:52;;;;;;;13.33;4.33;;;13.00;99.90;;;;;;5095119;28;20256;-74
2023/12/30 11:06:26;;;;;;;8.77;4.00;;;13.10;99.90;;;;;;5095943;28;20708;-73
2023/12/30 11:08:52;;;;;;;15.03;4.87;;;13.10;99.90;;;;;;5096149;28;20179;-73
2023/12/30 11:11:19;;;;;;;12.93;4.77;;;12.80;99.90;;;;;;5096089;28;20187;-74
2023/12/30 11:13:45;;;;;;;13.33;4.10;;;12.80;99.90;;;;;;5096643;28;20171;-73
2023/12/30 11:16:20;;;;;;;15.93;4.47;;;12.70;99.90;;;;;;5096485;28;20262;-73
2023/12/30 11:18:53;;;;;;;15.77;3.30;;;12.50;99.90;;;;;;5095624;28;20638;-74
2023/12/30 11:21:38;;;;;;;14.03;4.20;;;12.30;99.90;;;;;;5095889;28;20192;-74
2023/12/30 11:24:07;;;;;;;12.23;3.90;;;11.90;99.90;;;;;;5095833;28;20207;-73
2023/12/30 11:26:34;;;;;;;15.03;3.83;;;12.00;99.90;;;;;;5095678;28;20163;-74
2023/12/30 11:29:04;;;;;;;11.03;4.10;;;12.00;99.90;;;;;;5095509;28;20223;-74
2023/12/30 11:31:37;;;;;;;11.87;3.80;;;12.00;99.90;;;;;;5095926;28;20190;-74
2023/12/30 11:34:04;;;;;;;13.20;4.03;;;11.90;99.90;;;;;;5095716;28;20543;-73
2023/12/30 11:36:30;;;;;;;10.00;3.80;;;11.90;99.90;;;;;;5096043;28;20193;-73
2023/12/30 11:38:58;;;;;;;342.43;180.03;;;12.00;99.90;;;;;;5095763;28;20167;-74
2023/12/30 11:41:29;;;;;;;37.43;17.27;;;12.00;99.90;;;;;;5095243;28;20167;-73
2023/12/30 11:43:56;;;;;;;35.47;20.33;;;11.90;99.90;;;;;;5095137;28;20290;-74
2023/12/30 11:46:22;;;;;;;13.77;6.60;;;12.00;99.90;;;;;;5095593;28;20707;-74
2023/12/30 11:48:47;;;;;;;14.10;4.70;;;12.20;99.90;;;;;;5095591;28;20207;-74
2023/12/30 11:51:24;;;;;;;14.73;7.10;;;12.30;99.90;;;;;;5094537;28;20203;-73
2023/12/30 11:53:50;;;;;;;14.60;4.27;;;12.30;99.90;;;;;;5095795;28;20165;-74
2023/12/30 11:56:17;;;;;;;13.13;4.00;;;12.10;99.90;;;;;;5095011;28;20203;-74
2023/12/30 11:58:44;;;;;;;13.63;4.87;;;12.10;99.90;;;;;;5095165;28;20179;-74
2023/12/30 12:01:09;;;;;;;12.07;4.27;;;12.20;99.90;;;;;;5095946;28;20171;-74
2023/12/30 12:03:36;;;;;;;11.37;4.23;;;12.20;99.90;;;;;;5095575;28;20200;-74
2023/12/30 12:06:01;;;;;;;10.63;4.23;;;12.20;99.90;;;;;;5094696;28;20175;-74
2023/12/30 12:08:28;;;;;;;13.80;4.90;;;12.30;99.90;;;;;;5095270;28;20184;-74
2023/12/30 12:10:54;;;;;;;11.87;4.20;;;12.50;99.90;;;;;;5094750;28;20241;-74
2023/12/30 12:13:23;;;;;;;15.17;9.53;;;12.60;99.90;;;;;;5094432;28;20531;-74
2023/12/30 12:15:54;;;;;;;10.03;3.90;;;12.90;99.90;;;;;;5076677;28;20536;-74
2023/12/30 12:18:21;;;;;;;10.53;5.47;;;13.00;99.90;;;;;;5095388;28;20164;-73
2023/12/30 12:20:47;;;;;;;8.87;4.67;;;12.80;99.90;;;;;;5076488;28;20199;-74
2023/12/30 12:23:13;;;;;;;12.43;3.93;;;12.60;99.90;;;;;;5094600;28;20607;-74
2023/12/30 12:25:42;;;;;;;10.80;4.93;;;12.50;99.90;;;;;;5094139;28;20178;-74
2023/12/30 12:28:14;;;;;;;11.23;3.93;;;12.60;99.90;;;;;;5094955;28;20220;-73
2023/12/30 12:30:40;;;;;;;7.90;3.67;;;12.60;99.90;;;;;;5095176;28;20171;-74
2023/12/30 12:33:07;;;;;;;7.93;3.47;;;12.50;99.90;;;;;;5094696;28;20168;-73
2023/12/30 12:35:32;;;;;;;7.70;3.50;;;12.30;99.90;;;;;;5093981;28;20172;-73
2023/12/30 12:37:59;;;;;;;9.57;3.70;;;12.10;99.90;;;;;;5093853;28;20239;-74
2023/12/30 12:40:24;;;;;;;11.83;4.20;;;12.10;99.90;;;;;;5094839;28;20172;-74